Weather Station History

KWAFEDER5

1 Mile SW of Decatur High School, Federal Way, WA

Lat: N 47 ° 18 ' 31 '' ( 47.309 ° )
Lon: W 122 ° 22 ' 42 '' ( -122.379 ° )
Elevation: 240 ft
Station Hardware: Oregon Scientific WM918
Software: VWS V15.00
This page has been viewed 607 times since September 1, 2014
Beta Alert -- We are testing a new Rapid Fire update feature where stations send updated conditions every few seconds. This station is currently testing the feature.

Select Specific Date:

Select Data Span:

Daily Statistics

Type

Current

High

Low

Average

Temperature 64.0°F 83.8°F 50.7°F 67.2°F
Dew Point 47.3°F 60.1°F 42.2°F 50.0°F
Humidity 54% 100% 31% 64%
Wind Speed 0.0mph 7.4mph - 0.9mph
Wind Gust 0.0mph 7.8mph - -
Wind NNW - - NNW
Pressure 29.62in 29.68in 29.62in -
Precipitation 0.00in      

This Month Statistics

Type

High

Low

Average

Temperature 88.7°F 49.5°F 63.8°F
Dew Point 64.8°F 35.1°F 53.2°F
Humidity 100.0% 24.0% 73.2%
Wind Speed 13.9mph from the NE - 1.0mph
Wind Gust 18.6mph from the NNE - -
Wind - - West
Pressure 30.06in 29.59in -
Precipitation 0.12in    

Tabular Data for September 14, 2014

Time Temperature Dew Point Pressure Wind Wind Speed Wind Gust Humidity Rainfall Rate (Hourly) Clouds
00:04 57.6°F 50.2°F 29.65in Calm   0.0mph 76% 0.12in CLR 
00:09 57.2°F 49.9°F 29.65in Calm   0.0mph 76% 0.12in CLR 
00:14 57.2°F 49.9°F 29.65in Calm   0.0mph 76% 0.12in CLR 
00:19 57.2°F 50.5°F 29.65in Calm   0.0mph 78% 0.00in CLR 
00:24 57.0°F 50.9°F 29.65in Calm   0.0mph 80% 0.00in CLR 
00:29 57.0°F 50.9°F 29.65in Calm   0.0mph 80% 0.00in CLR 
00:34 56.8°F 50.7°F 29.65in Calm   0.0mph 80% 0.00in CLR 
00:39 56.7°F 50.5°F 29.65in Calm   0.0mph 80% 0.00in CLR 
00:44 56.7°F 50.5°F 29.65in Calm   0.0mph 80% 0.00in CLR 
00:49 56.7°F 50.5°F 29.65in Calm   0.0mph 80% 0.00in CLR 
00:54 56.7°F 51.1°F 29.65in Calm   0.0mph 82% 0.00in CLR 
00:59 56.5°F 50.4°F 29.65in Calm   0.0mph 80% 0.00in CLR 
01:04 56.3°F 50.2°F 29.65in Calm   0.0mph 80% 0.00in CLR 
01:09 56.3°F 50.8°F 29.65in Calm   0.0mph 82% 0.00in CLR 
01:14 56.1°F 50.6°F 29.65in Calm   0.0mph 82% 0.00in CLR 
01:19 56.1°F 50.6°F 29.65in Calm   0.0mph 82% 0.00in CLR 
01:24 55.9°F 50.4°F 29.65in Calm   0.0mph 82% 0.00in CLR 
01:29 55.9°F 50.4°F 29.65in Calm   0.0mph 82% 0.00in CLR 
01:34 55.8°F 50.2°F 29.65in Calm   0.0mph 82% 0.00in CLR 
01:39 55.4°F 49.9°F 29.65in Calm   0.0mph 82% 0.00in CLR 
01:44 55.2°F 49.7°F 29.65in Calm   0.0mph 82% 0.00in CLR 
01:49 54.9°F 49.3°F 29.65in Calm   0.0mph 82% 0.00in CLR 
01:54 54.9°F 49.9°F 29.65in Calm   0.0mph 83% 0.00in CLR 
01:59 54.9°F 50.4°F 29.65in Calm   0.0mph 85% 0.00in CLR 
02:04 54.9°F 50.4°F 29.65in Calm   0.0mph 85% 0.00in CLR 
02:09 54.9°F 50.4°F 29.65in Calm   0.0mph 85% 0.00in CLR 
02:14 54.7°F 50.3°F 29.65in Calm   0.0mph 85% 0.00in CLR 
02:19 54.7°F 50.3°F 29.65in Calm   0.0mph 85% 0.00in CLR 
02:24 54.7°F 50.8°F 29.65in Calm   0.0mph 87% 0.00in CLR 
02:29 54.7°F 50.8°F 29.65in Calm   0.0mph 87% 0.00in CLR 
02:34 54.7°F 50.8°F 29.65in Calm   0.0mph 87% 0.00in CLR 
02:39 54.7°F 50.8°F 29.65in Calm   0.0mph 87% 0.00in CLR 
02:44 54.5°F 50.6°F 29.65in Calm   0.0mph 87% 0.00in CLR 
02:49 54.5°F 50.6°F 29.65in Calm   0.0mph 87% 0.00in CLR 
02:54 54.5°F 50.6°F 29.65in Calm   0.0mph 87% 0.00in CLR 
02:59 54.3°F 50.5°F 29.65in Calm   0.0mph 87% 0.00in CLR 
03:04 54.1°F 50.3°F 29.65in Calm   0.0mph 87% 0.00in CLR 
03:09 54.0°F 50.1°F 29.65in Calm   0.0mph 87% 0.00in CLR 
03:14 54.0°F 50.1°F 29.65in Calm   0.0mph 87% 0.00in CLR 
03:19 54.0°F 50.6°F 29.65in Calm   0.0mph 88% 0.00in CLR 
03:24 53.8°F 50.4°F 29.65in Calm   0.0mph 88% 0.00in CLR 
03:29 53.8°F 50.4°F 29.65in Calm   0.0mph 88% 0.00in CLR 
03:34 53.8°F 50.4°F 29.65in Calm   0.0mph 88% 0.00in CLR 
03:39 53.8°F 50.4°F 29.65in Calm   0.0mph 88% 0.00in CLR 
03:44 53.8°F 50.4°F 29.65in Calm   0.0mph 88% 0.00in CLR 
03:49 53.6°F 50.3°F 29.65in Calm   0.0mph 88% 0.00in CLR 
03:54 53.4°F 50.1°F 29.65in Calm   0.0mph 88% 0.00in CLR 
03:59 53.4°F 50.1°F 29.65in Calm   0.0mph 88% 0.00in CLR 
04:04 53.4°F 50.6°F 29.65in Calm   0.0mph 90% 0.00in CLR 
04:09 53.4°F 50.6°F 29.65in Calm   0.0mph 90% 0.00in CLR 
04:14 53.2°F 50.4°F 29.65in Calm   0.0mph 90% 0.00in CLR 
04:19 53.2°F 50.4°F 29.65in Calm   0.0mph 90% 0.00in CLR 
04:24 53.1°F 50.2°F 29.65in Calm   0.0mph 90% 0.00in CLR 
04:29 52.9°F 50.1°F 29.65in Calm   0.0mph 90% 0.00in CLR 
04:34 52.5°F 50.2°F 29.65in Calm   0.0mph 92% 0.00in CLR 
04:39 52.5°F 50.2°F 29.65in Calm   0.0mph 92% 0.00in CLR 
04:44 52.3°F 50.0°F 29.68in Calm   0.0mph 92% 0.00in CLR 
04:49 52.2°F 50.3°F 29.68in Calm   0.0mph 94% 0.00in CLR 
04:54 52.2°F 50.8°F 29.68in Calm   0.0mph 95% 0.00in CLR 
04:59 52.2°F 50.8°F 29.65in Calm   0.0mph 95% 0.00in CLR 
05:04 52.0°F 50.7°F 29.65in Calm   0.0mph 95% 0.00in CLR 
05:09 51.8°F 50.5°F 29.65in Calm   0.0mph 95% 0.00in CLR 
05:13 51.6°F 50.8°F 29.65in Calm   0.0mph 97% 0.00in CLR 
05:18 51.6°F 51.2°F 29.65in Calm   0.0mph 99% 0.00in CLR 
05:23 51.6°F 51.2°F 29.65in Calm   0.0mph 99% 0.00in CLR 
05:28 51.4°F 51.1°F 29.68in Calm   0.0mph 99% 0.00in CLR 
05:33 51.4°F 51.1°F 29.68in Calm   0.0mph 99% 0.00in CLR 
05:38 51.3°F 50.9°F 29.68in Calm   0.0mph 99% 0.00in CLR 
05:43 51.1°F 50.7°F 29.68in Calm   0.0mph 99% 0.00in CLR 
05:48 51.1°F 51.1°F 29.68in Calm   0.0mph 100% 0.00in CLR 
05:53 50.9°F 50.9°F 29.68in Calm   0.0mph 100% 0.00in CLR 
05:58 50.9°F 50.9°F 29.68in Calm   0.0mph 100% 0.00in CLR 
06:02 50.9°F 50.9°F 29.68in Calm   0.0mph 100% 0.00in CLR 
06:07 51.1°F 51.1°F 29.68in Calm   0.0mph 100% 0.00in CLR 
06:12 50.9°F 50.9°F 29.68in Calm   0.0mph 100% 0.00in CLR 
06:17 50.9°F 50.9°F 29.68in Calm   0.0mph 100% 0.00in CLR 
06:22 50.9°F 50.9°F 29.68in Calm   0.0mph 100% 0.00in CLR 
06:27 50.9°F 50.9°F 29.68in Calm   0.0mph 100% 0.00in CLR 
06:32 50.9°F 50.9°F 29.68in Calm   0.0mph 100% 0.00in CLR 
06:37 50.9°F 50.9°F 29.68in Calm   0.0mph 100% 0.00in CLR 
06:42 50.9°F 50.9°F 29.68in Calm   0.0mph 100% 0.00in CLR 
06:47 50.9°F 50.9°F 29.68in Calm   0.0mph 100% 0.00in CLR 
06:52 50.7°F 50.7°F 29.68in Calm   0.0mph 100% 0.00in CLR 
06:57 50.7°F 50.7°F 29.68in Calm   0.0mph 100% 0.00in CLR 
07:02 50.7°F 50.7°F 29.68in Calm   0.0mph 100% 0.00in CLR 
07:07 50.9°F 50.9°F 29.68in Calm   0.0mph 100% 0.00in CLR 
07:12 51.1°F 51.1°F 29.68in Calm   0.0mph 100% 0.00in CLR 
07:17 51.1°F 51.1°F 29.68in Calm   0.0mph 100% 0.00in CLR 
07:22 50.9°F 50.9°F 29.68in Calm   0.0mph 100% 0.00in CLR 
07:27 51.1°F 51.1°F 29.68in Calm   0.0mph 100% 0.00in CLR 
07:32 51.3°F 51.3°F 29.68in Calm   0.0mph 100% 0.00in CLR 
07:37 51.4°F 51.4°F 29.68in Calm   0.0mph 100% 0.00in CLR 
07:42 51.4°F 51.4°F 29.68in Calm   0.0mph 100% 0.00in CLR 
07:47 51.6°F 51.6°F 29.68in Calm   0.0mph 100% 0.00in CLR 
07:52 51.8°F 51.8°F 29.68in Calm   0.0mph 100% 0.00in CLR 
07:57 52.0°F 52.0°F 29.68in Calm   0.0mph 100% 0.00in CLR 
08:01 52.2°F 52.2°F 29.68in Calm   0.0mph 100% 0.00in CLR 
08:06 52.5°F 52.5°F 29.68in Calm   0.0mph 100% 0.00in CLR 
08:11 52.9°F 52.9°F 29.68in Calm   0.0mph 100% 0.00in CLR 
08:16 53.2°F 53.2°F 29.68in Calm   0.0mph 100% 0.00in CLR 
08:21 53.6°F 53.6°F 29.68in Calm   0.0mph 100% 0.00in CLR 
08:26 54.0°F 54.0°F 29.68in Calm   0.0mph 100% 0.00in CLR 
08:31 54.5°F 54.5°F 29.68in Calm   0.0mph 100% 0.00in CLR 
08:36 54.9°F 54.9°F 29.68in Calm   0.0mph 100% 0.00in CLR 
08:41 55.4°F 55.4°F 29.68in Calm   0.0mph 100% 0.00in CLR 
08:46 55.9°F 55.9°F 29.68in Calm   0.0mph 100% 0.00in CLR 
08:51 56.7°F 56.7°F 29.68in Calm   0.0mph 100% 0.00in CLR 
08:56 57.4°F 57.4°F 29.68in Calm   0.0mph 100% 0.00in CLR 
09:01 58.1°F 58.1°F 29.68in Calm   0.0mph 100% 0.00in CLR 
09:06 59.2°F 59.2°F 29.68in Calm   3.6mph 100% 0.00in CLR 
09:11 60.1°F 60.1°F 29.68in North 4.0mph 4.0mph 100% 0.00in CLR 
09:16 61.0°F 59.1°F 29.68in Calm   4.0mph 94% 0.00in CLR 
09:21 61.9°F 57.3°F 29.68in Calm   0.0mph 85% 0.00in CLR 
09:26 62.6°F 56.3°F 29.68in NNW 3.6mph 6.7mph 80% 0.00in CLR 
09:31 63.3°F 56.4°F 29.68in NW 4.5mph 5.8mph 78% 0.00in CLR 
09:36 64.2°F 56.1°F 29.68in NW 4.0mph 4.5mph 75% 0.00in CLR 
09:41 64.6°F 55.8°F 29.68in Calm   0.0mph 73% 0.00in CLR 
09:46 64.8°F 54.6°F 29.68in Calm   5.4mph 70% 0.00in CLR 
09:51 65.1°F 55.0°F 29.68in NW 3.6mph 5.4mph 70% 0.00in CLR 
09:56 65.7°F 54.1°F 29.68in Calm   0.0mph 66% 0.00in CLR 
10:01 66.4°F 54.1°F 29.68in Calm   0.0mph 65% 0.00in CLR 
10:06 66.7°F 53.0°F 29.68in WNW 4.5mph 5.8mph 61% 0.00in CLR 
10:11 67.3°F 51.9°F 29.68in WNW 3.1mph 4.0mph 58% 0.00in CLR 
10:16 67.6°F 52.3°F 29.68in WNW 4.9mph 5.4mph 58% 0.00in CLR 
10:21 68.0°F 51.8°F 29.68in Calm   3.1mph 56% 0.00in CLR 
10:26 68.5°F 53.1°F 29.68in Calm   4.9mph 58% 0.00in CLR 
10:31 68.7°F 52.5°F 29.68in Calm   4.5mph 56% 0.00in CLR 
10:36 69.3°F 53.0°F 29.68in Calm   0.0mph 56% 0.00in CLR 
10:41 69.6°F 53.3°F 29.68in North 4.0mph 5.4mph 56% 0.00in CLR 
10:46 70.0°F 52.8°F 29.68in Calm   0.0mph 54% 0.00in CLR 
10:51 70.5°F 52.4°F 29.68in NNW 5.4mph 5.4mph 53% 0.00in CLR 
10:56 70.5°F 50.6°F 29.68in NNW 3.6mph 6.3mph 49% 0.00in CLR 
11:01 71.1°F 52.9°F 29.68in WNW 3.1mph 4.9mph 53% 0.00in CLR 
11:06 71.4°F 53.3°F 29.68in Calm   3.6mph 53% 0.00in CLR 
11:11 72.0°F 53.8°F 29.68in NNW 7.4mph 7.4mph 53% 0.00in CLR 
11:16 72.3°F 54.1°F 29.68in Calm   5.4mph 53% 0.00in CLR 
11:21 72.0°F 52.0°F 29.68in NNW 5.8mph 6.9mph 49% 0.00in CLR 
11:26 72.0°F 53.8°F 29.68in Calm   4.9mph 53% 0.00in CLR 
11:31 72.1°F 52.1°F 29.68in NE 3.1mph 4.0mph 49% 0.00in CLR 
11:36 72.7°F 51.7°F 29.68in NW 5.8mph 6.3mph 48% 0.00in CLR 
11:41 72.9°F 51.8°F 29.68in NNE 4.0mph 4.0mph 48% 0.00in CLR 
11:46 73.6°F 52.5°F 29.68in NNW 3.1mph 5.8mph 48% 0.00in CLR 
11:51 74.1°F 52.0°F 29.68in Calm   4.9mph 46% 0.00in CLR 
11:56 74.3°F 52.1°F 29.68in Calm   3.6mph 46% 0.00in CLR 
12:01 74.3°F 50.1°F 29.68in Calm   4.9mph 42% 0.00in CLR 
12:06 74.3°F 50.1°F 29.68in NNW 2.7mph 7.4mph 42% 0.00in CLR 
12:11 74.5°F 50.2°F 29.68in Calm   0.0mph 42% 0.00in CLR 
12:16 74.5°F 50.2°F 29.68in Calm   0.0mph 42% 0.00in CLR 
12:21 74.7°F 48.2°F 29.68in NNW 5.4mph 6.9mph 39% 0.00in CLR 
12:26 74.3°F 49.0°F 29.68in Calm   4.5mph 41% 0.00in CLR 
12:31 74.8°F 48.3°F 29.68in Calm   2.7mph 39% 0.00in CLR 
12:36 75.7°F 49.1°F 29.68in Calm   0.0mph 39% 0.00in CLR 
12:41 76.3°F 49.6°F 29.68in Calm   3.6mph 39% 0.00in CLR 
12:46 76.6°F 49.9°F 29.68in Calm   3.1mph 39% 0.00in CLR 
12:51 77.2°F 49.2°F 29.68in NW 2.7mph 6.7mph 37% 0.00in CLR 
12:56 76.5°F 48.6°F 29.68in Calm   6.9mph 37% 0.00in CLR 
13:01 75.7°F 47.9°F 29.68in NW 5.4mph 6.7mph 37% 0.00in CLR 
13:06 76.6°F 48.7°F 29.68in Calm   0.0mph 37% 0.00in CLR 
13:11 77.5°F 49.5°F 29.68in Calm   3.6mph 37% 0.00in CLR 
13:16 77.9°F 48.6°F 29.68in Calm   0.0mph 36% 0.00in CLR 
13:21 77.7°F 48.4°F 29.68in NE 2.7mph 5.4mph 36% 0.00in CLR 
13:26 77.7°F 48.4°F 29.68in Calm   2.7mph 36% 0.00in CLR 
13:31 77.5°F 48.3°F 29.68in Calm   0.0mph 36% 0.00in CLR 
13:36 77.4°F 48.1°F 29.68in Calm   6.9mph 36% 0.00in CLR 
13:41 77.0°F 47.8°F 29.68in North 3.1mph 3.1mph 36% 0.00in CLR 
13:46 76.8°F 47.7°F 29.68in Calm   4.0mph 36% 0.00in CLR 
13:51 77.2°F 48.0°F 29.68in Calm   6.3mph 36% 0.00in CLR 
13:56 77.5°F 48.3°F 29.65in Calm   4.0mph 36% 0.00in CLR 
14:01 78.3°F 48.9°F 29.65in WNW 5.8mph 7.8mph 36% 0.00in CLR 
14:06 79.0°F 49.5°F 29.65in WNW 6.9mph 6.9mph 36% 0.00in CLR 
14:11 79.0°F 49.5°F 29.65in NW 5.4mph 5.4mph 36% 0.00in CLR 
14:16 79.2°F 49.7°F 29.65in Calm   2.7mph 36% 0.00in CLR 
14:21 80.2°F 49.3°F 29.65in NNE 2.7mph 3.6mph 34% 0.00in CLR 
14:26 80.8°F 49.8°F 29.65in Calm   4.0mph 34% 0.00in CLR 
14:31 81.5°F 50.5°F 29.65in NW 5.8mph 7.4mph 34% 0.00in CLR 
14:36 81.1°F 50.1°F 29.65in NNW 3.6mph 6.7mph 34% 0.00in CLR 
14:41 81.1°F 50.1°F 29.65in WNW 4.5mph 5.8mph 34% 0.00in CLR 
14:46 81.7°F 49.2°F 29.65in NW 4.0mph 7.4mph 32% 0.00in CLR 
14:51 81.5°F 49.1°F 29.65in NNW 4.9mph 6.3mph 32% 0.00in CLR 
14:56 81.9°F 49.4°F 29.65in Calm   6.3mph 32% 0.00in CLR 
15:01 81.9°F 49.4°F 29.65in NNW 6.9mph 6.9mph 32% 0.00in CLR 
15:06 82.9°F 50.3°F 29.65in NNW 5.4mph 6.7mph 32% 0.00in CLR 
15:11 83.1°F 50.5°F 29.65in Calm   0.0mph 32% 0.00in CLR 
15:16 83.3°F 50.6°F 29.65in NNE 4.0mph 6.3mph 32% 0.00in CLR 
15:21 82.9°F 50.3°F 29.65in Calm   0.0mph 32% 0.00in CLR 
15:26 82.6°F 50.0°F 29.65in NE 4.5mph 5.4mph 32% 0.00in CLR 
15:31 82.8°F 50.2°F 29.65in North 6.9mph 6.9mph 32% 0.00in CLR 
15:36 83.3°F 50.6°F 29.65in Calm   5.8mph 32% 0.00in CLR 
15:41 83.5°F 50.8°F 29.65in Calm   4.0mph 32% 0.00in CLR 
15:44 83.8°F 51.1°F 29.65in NNW 4.5mph 4.5mph 32% 0.00in CLR 
15:49 83.3°F 50.6°F 29.65in NE 4.0mph 4.0mph 32% 0.00in CLR 
15:54 83.5°F 49.3°F 29.65in Calm   3.1mph 31% 0.00in CLR 
15:59 83.3°F 50.6°F 29.65in NNE 4.0mph 5.8mph 32% 0.00in CLR 
16:04 83.5°F 49.3°F 29.65in NE 4.9mph 6.3mph 31% 0.00in CLR 
16:09 83.5°F 49.3°F 29.65in Calm   4.9mph 31% 0.00in CLR 
16:14 83.7°F 49.5°F 29.62in NW 3.1mph 5.4mph 31% 0.00in CLR 
16:19 83.5°F 49.3°F 29.62in Calm   3.6mph 31% 0.00in CLR 
16:24 83.8°F 49.7°F 29.62in Calm   5.4mph 31% 0.00in CLR 
16:29 83.5°F 49.3°F 29.62in Calm   6.7mph 31% 0.00in CLR 
16:34 83.3°F 50.6°F 29.62in Calm   4.0mph 32% 0.00in CLR 
16:39 82.9°F 50.3°F 29.62in Calm   4.0mph 32% 0.00in CLR 
16:44 82.8°F 50.2°F 29.62in NW 5.4mph 6.7mph 32% 0.00in CLR 
16:49 81.7°F 49.2°F 29.62in Calm   6.7mph 32% 0.00in CLR 
16:54 81.1°F 48.8°F 29.62in Calm   4.0mph 32% 0.00in CLR 
16:59 81.1°F 48.8°F 29.62in WNW 4.9mph 5.8mph 32% 0.00in CLR 
17:04 79.9°F 47.7°F 29.62in NW 5.8mph 7.4mph 32% 0.00in CLR 
17:09 79.7°F 47.5°F 29.62in NW 4.0mph 4.0mph 32% 0.00in CLR 
17:14 78.8°F 48.1°F 29.62in NNW 3.6mph 6.7mph 34% 0.00in CLR 
17:19 78.1°F 47.5°F 29.62in Calm   7.4mph 34% 0.00in CLR 
17:24 77.9°F 47.3°F 29.62in Calm   5.8mph 34% 0.00in CLR 
17:29 77.7°F 47.1°F 29.62in Calm   0.0mph 34% 0.00in CLR 
17:34 77.5°F 47.0°F 29.62in WNW 4.0mph 5.4mph 34% 0.00in CLR 
17:39 77.2°F 46.7°F 29.62in Calm   2.7mph 34% 0.00in CLR 
17:44 77.0°F 46.5°F 29.62in Calm   0.0mph 34% 0.00in CLR 
17:49 76.8°F 46.3°F 29.62in Calm   0.0mph 34% 0.00in CLR 
17:54 76.6°F 46.2°F 29.62in Calm   0.0mph 34% 0.00in CLR 
17:59 76.5°F 46.0°F 29.62in Calm   0.0mph 34% 0.00in CLR 
18:04 76.1°F 45.7°F 29.62in Calm   5.4mph 34% 0.00in CLR 
18:09 75.7°F 46.7°F 29.62in Calm   0.0mph 36% 0.00in CLR 
18:14 75.6°F 46.5°F 29.62in Calm   0.0mph 36% 0.00in CLR 
18:19 75.2°F 46.2°F 29.62in WNW 3.6mph 3.6mph 36% 0.00in CLR 
18:24 75.0°F 46.1°F 29.62in Calm   0.0mph 36% 0.00in CLR 
18:29 74.7°F 45.7°F 29.62in Calm   0.0mph 36% 0.00in CLR 
18:34 74.5°F 45.6°F 29.62in Calm   4.0mph 36% 0.00in CLR 
18:39 74.3°F 45.4°F 29.62in Calm   0.0mph 36% 0.00in CLR 
18:44 74.5°F 45.6°F 29.62in Calm   0.0mph 36% 0.00in CLR 
18:48 74.5°F 45.6°F 29.62in Calm   0.0mph 36% 0.00in CLR 
18:53 73.6°F 44.8°F 29.62in Calm   0.0mph 36% 0.00in CLR 
18:58 72.9°F 44.2°F 29.62in Calm   0.0mph 36% 0.00in CLR 
19:03 72.3°F 44.9°F 29.62in Calm   0.0mph 37% 0.00in CLR 
19:09 72.0°F 44.6°F 29.62in Calm   0.0mph 37% 0.00in CLR 
19:14 71.4°F 44.1°F 29.62in Calm   0.0mph 37% 0.00in CLR 
19:18 71.1°F 43.8°F 29.62in Calm   0.0mph 37% 0.00in CLR 
19:23 70.3°F 44.3°F 29.62in Calm   0.0mph 39% 0.00in CLR 
19:28 69.8°F 43.8°F 29.62in Calm   0.0mph 39% 0.00in CLR 
19:33 69.3°F 43.3°F 29.62in Calm   0.0mph 39% 0.00in CLR 
19:38 68.9°F 43.0°F 29.62in Calm   0.0mph 39% 0.00in CLR 
19:43 68.4°F 42.5°F 29.62in Calm   0.0mph 39% 0.00in CLR 
19:48 68.0°F 42.2°F 29.62in Calm   0.0mph 39% 0.00in CLR 
19:53 67.6°F 43.0°F 29.62in Calm   0.0mph 41% 0.00in CLR 
19:58 67.3°F 42.7°F 29.62in Calm   0.0mph 41% 0.00in CLR 
20:03 66.9°F 43.4°F 29.62in Calm   0.0mph 42% 0.00in CLR 
20:08 66.4°F 42.9°F 29.62in Calm   0.0mph 42% 0.00in CLR 
20:13 66.0°F 43.6°F 29.62in Calm   0.0mph 44% 0.00in CLR 
20:18 65.8°F 44.5°F 29.62in Calm   0.0mph 46% 0.00in CLR 
20:23 65.7°F 44.3°F 29.62in Calm   0.0mph 46% 0.00in CLR 
20:28 65.5°F 45.1°F 29.62in Calm   0.0mph 48% 0.00in CLR 
20:33 65.1°F 45.7°F 29.62in Calm   0.0mph 49% 0.00in CLR 
20:38 64.9°F 46.4°F 29.62in Calm   0.0mph 51% 0.00in CLR 
20:43 64.8°F 46.2°F 29.62in Calm   0.0mph 51% 0.00in CLR 
20:48 64.6°F 46.1°F 29.62in Calm   0.0mph 51% 0.00in CLR 
20:53 64.4°F 46.8°F 29.62in Calm   0.0mph 53% 0.00in CLR 
20:58 64.0°F 46.4°F 29.62in Calm   0.0mph 53% 0.00in CLR 

Distance Calculator

Your Latitude: Your Longitude:
Copyright © 2014 The Weather Underground, Inc.